createdAt,value
2022-12-13T00:01:28.254Z,-0.34
2022-12-13T00:03:57.332Z,-0.52
2022-12-13T00:06:25.462Z,-1.53
2022-12-13T00:08:53.722Z,-1.07
2022-12-13T00:11:21.494Z,-1.75
2022-12-13T00:13:49.411Z,-0.63
2022-12-13T00:16:19.360Z,-1.22
2022-12-13T00:18:47.970Z,-0.80
2022-12-13T00:21:18.043Z,-1.08
2022-12-13T00:23:46.238Z,-1.26
2022-12-13T00:26:22.973Z,-1.47
2022-12-13T00:28:51.341Z,-1.46
2022-12-13T00:31:53.437Z,-1.12
2022-12-13T00:34:07.702Z,-1.74
2022-12-13T00:36:35.363Z,-2.03
2022-12-13T00:39:02.792Z,-1.26
2022-12-13T00:41:35.662Z,-1.90
2022-12-13T00:44:04.239Z,-1.71
2022-12-13T00:46:32.379Z,-1.13
2022-12-13T00:49:01.118Z,-1.02
2022-12-13T00:51:29.943Z,-0.72
2022-12-13T00:53:57.576Z,-1.39
2022-12-13T00:56:26.721Z,-0.71
2022-12-13T00:58:54.753Z,-0.44
2022-12-13T01:01:25.051Z,-1.33
2022-12-13T01:03:58.216Z,-1.99
2022-12-13T01:06:30.042Z,-2.28
2022-12-13T01:08:57.499Z,-1.82
2022-12-13T01:11:25.755Z,-1.52
2022-12-13T01:13:53.394Z,-1.59
2022-12-13T01:16:21.604Z,-0.90
2022-12-13T01:18:49.103Z,-2.14
2022-12-13T01:21:18.718Z,-1.96
2022-12-13T01:23:46.270Z,-0.94
2022-12-13T01:26:16.108Z,-1.26
2022-12-13T01:28:44.223Z,-1.66
2022-12-13T01:31:14.188Z,-1.65
2022-12-13T01:33:42.432Z,-2.12
2022-12-13T01:36:13.626Z,-1.80
2022-12-13T01:38:41.036Z,-0.71
2022-12-13T01:41:17.724Z,-1.49
2022-12-13T01:43:53.140Z,-1.07
2022-12-13T01:46:20.802Z,-0.18
2022-12-13T01:49:19.801Z,0.36
2022-12-13T01:51:54.925Z,0.27
2022-12-13T01:54:33.460Z,-0.09
2022-12-13T01:57:04.488Z,-0.33
2022-12-13T01:59:33.883Z,-0.30
2022-12-13T02:02:01.631Z,-0.82
2022-12-13T02:04:34.006Z,-0.06
2022-12-13T02:07:01.837Z,0.26
2022-12-13T02:09:29.557Z,-0.03
2022-12-13T02:11:56.917Z,-1.28
2022-12-13T02:14:24.263Z,-1.26
2022-12-13T02:17:09.430Z,-0.75
2022-12-13T02:20:01.514Z,-1.58
2022-12-13T02:23:05.359Z,-1.44
2022-12-13T02:26:03.786Z,-2.00
2022-12-13T02:28:43.366Z,-1.60
2022-12-13T02:31:15.116Z,-0.85
2022-12-13T02:33:53.375Z,-1.63
2022-12-13T02:36:35.923Z,-1.20
2022-12-13T02:39:10.894Z,-1.07
2022-12-13T02:41:47.988Z,-1.22
2022-12-13T02:44:30.833Z,-1.38
2022-12-13T02:47:03.152Z,-1.47
2022-12-13T02:49:33.422Z,-1.51
2022-12-13T02:52:02.498Z,-1.34
2022-12-13T02:54:30.576Z,-2.10
2022-12-13T02:56:59.734Z,-2.04
2022-12-13T02:59:38.778Z,-2.19
2022-12-13T03:02:31.756Z,-2.26
2022-12-13T03:05:34.513Z,-2.68
2022-12-13T03:08:20.176Z,-2.67
2022-12-13T03:11:04.715Z,-2.87
2022-12-13T03:13:51.174Z,-3.14
2022-12-13T03:16:26.141Z,-3.26
2022-12-13T03:18:57.935Z,-3.29
2022-12-13T03:21:25.813Z,-3.15
2022-12-13T03:23:53.343Z,-3.00
2022-12-13T03:26:24.305Z,-2.78
2022-12-13T03:28:52.494Z,-2.87
2022-12-13T03:31:20.276Z,-2.59
2022-12-13T03:33:48.011Z,-2.63
2022-12-13T03:36:16.650Z,-2.53
2022-12-13T03:38:44.946Z,-2.53
2022-12-13T03:41:16.889Z,-2.29
2022-12-13T03:43:44.749Z,-2.59
2022-12-13T03:46:12.652Z,-2.60
2022-12-13T03:48:40.445Z,-2.76
2022-12-13T03:51:07.802Z,-2.73
2022-12-13T03:53:35.216Z,-2.79
2022-12-13T03:56:05.185Z,-2.80
2022-12-13T03:58:36.451Z,-2.81
2022-12-13T04:01:06.910Z,-3.24
2022-12-13T04:03:35.377Z,-3.39
2022-12-13T04:06:03.880Z,-3.27
2022-12-13T04:08:31.279Z,-3.17
2022-12-13T04:10:58.985Z,-3.37
2022-12-13T04:13:35.206Z,-2.93
2022-12-13T04:16:03.258Z,-3.10
2022-12-13T04:18:30.837Z,-3.11
2022-12-13T04:20:58.279Z,-3.12
2022-12-13T04:23:25.926Z,-3.09
2022-12-13T04:25:53.301Z,-2.91
2022-12-13T04:28:22.450Z,-3.00
2022-12-13T04:30:53.430Z,-2.89
2022-12-13T04:33:22.702Z,-3.17
2022-12-13T04:35:50.583Z,-3.40
2022-12-13T04:38:17.939Z,-3.50
2022-12-13T04:40:45.500Z,-3.37
2022-12-13T04:43:13.146Z,-3.39
2022-12-13T04:45:40.726Z,-3.58
2022-12-13T04:48:08.515Z,-3.18
2022-12-13T04:50:36.918Z,-3.11
2022-12-13T04:53:04.316Z,-2.72
2022-12-13T04:55:31.699Z,-1.89
2022-12-13T04:57:59.363Z,-1.16
2022-12-13T05:00:26.791Z,-0.52
2022-12-13T05:02:54.276Z,-0.28
2022-12-13T05:05:22.519Z,-0.05
2022-12-13T05:07:49.953Z,-0.10
2022-12-13T05:10:32.123Z,-1.68
2022-12-13T05:13:04.188Z,-2.25
2022-12-13T05:15:31.664Z,-2.80
2022-12-13T05:18:10.273Z,-2.92
2022-12-13T05:20:39.853Z,-2.72
2022-12-13T05:23:07.332Z,-3.26
2022-12-13T05:25:37.066Z,-3.70
2022-12-13T05:28:09.107Z,-3.61
2022-12-13T05:30:56.101Z,-3.76
2022-12-13T05:33:24.557Z,-3.62
2022-12-13T05:35:56.324Z,-3.45
2022-12-13T05:38:27.009Z,-3.70
2022-12-13T05:40:54.459Z,-4.06
2022-12-13T05:43:22.206Z,-4.42
2022-12-13T05:45:50.891Z,-4.55
2022-12-13T05:48:24.942Z,-4.44
2022-12-13T05:51:10.858Z,-3.98
2022-12-13T05:53:42.313Z,-3.72
2022-12-13T05:56:10.974Z,-3.18
2022-12-13T05:58:39.722Z,-1.67
2022-12-13T06:01:08.748Z,-1.30
2022-12-13T06:03:36.736Z,-2.08
2022-12-13T06:06:05.006Z,-3.11
2022-12-13T06:08:32.987Z,-3.32
2022-12-13T06:11:11.759Z,-3.27
2022-12-13T06:13:43.744Z,-2.69
2022-12-13T06:16:22.965Z,-2.08
2022-12-13T06:18:59.453Z,-1.32
2022-12-13T06:21:40.676Z,-0.98
2022-12-13T06:24:11.205Z,-0.86
2022-12-13T06:26:38.864Z,-1.04
2022-12-13T06:29:06.236Z,-1.07
2022-12-13T06:31:33.732Z,-1.68
2022-12-13T06:34:14.556Z,-1.67
2022-12-13T06:36:43.144Z,-2.18
2022-12-13T06:39:10.821Z,-2.08
2022-12-13T06:41:38.367Z,-2.74
2022-12-13T06:44:05.736Z,-2.98
2022-12-13T06:46:33.786Z,-3.37
2022-12-13T06:49:01.549Z,-2.87
2022-12-13T06:51:33.133Z,-2.15
2022-12-13T06:54:04.885Z,-1.84
2022-12-13T06:56:32.786Z,-2.26
2022-12-13T06:59:01.714Z,-2.47
2022-12-13T07:01:36.804Z,-2.53
2022-12-13T07:04:29.943Z,-3.07
2022-12-13T07:07:01.226Z,-2.19
2022-12-13T07:09:32.701Z,-2.46
2022-12-13T07:12:00.439Z,-2.79
2022-12-13T07:14:27.925Z,-2.12
2022-12-13T07:17:02.882Z,-1.28
2022-12-13T07:19:35.185Z,-1.08
2022-12-13T07:22:05.978Z,-0.96
2022-12-13T07:24:36.831Z,-0.59
2022-12-13T07:27:04.622Z,-0.46
2022-12-13T07:29:31.969Z,-0.20
2022-12-13T07:32:01.668Z,-0.11
2022-12-13T07:34:30.515Z,0.09
2022-12-13T07:36:58.201Z,0.17
2022-12-13T07:39:26.302Z,0.29
2022-12-13T07:41:55.622Z,0.08
2022-12-13T07:44:24.183Z,0.37
2022-12-13T07:46:52.396Z,-0.16
2022-12-13T07:49:19.924Z,-0.30
2022-12-13T07:51:48.056Z,0.15
2022-12-13T07:54:15.806Z,0.28
2022-12-13T07:56:43.288Z,0.33
2022-12-13T07:59:11.070Z,0.17
2022-12-13T08:01:38.936Z,0.06
2022-12-13T08:04:06.810Z,-0.22
2022-12-13T08:06:37.990Z,-0.01
2022-12-13T08:09:06.069Z,-0.50
2022-12-13T08:11:34.562Z,-1.16
2022-12-13T08:14:01.952Z,-0.57
2022-12-13T08:16:30.513Z,0.02
2022-12-13T08:19:02.913Z,-0.02
2022-12-13T08:24:25.291Z,-0.01
2022-12-13T08:26:56.930Z,0.08
2022-12-13T08:29:34.006Z,-1.30
2022-12-13T08:32:09.169Z,-1.94
2022-12-13T08:34:37.209Z,-0.26
2022-12-13T08:37:05.287Z,-0.06
2022-12-13T08:39:37.206Z,0.10
2022-12-13T08:42:18.904Z,0.29
2022-12-13T08:44:51.573Z,0.92
2022-12-13T08:47:22.915Z,0.98
2022-12-13T08:50:01.527Z,0.41
2022-12-13T08:52:40.136Z,0.49
2022-12-13T08:55:10.730Z,0.48
2022-12-13T08:57:39.555Z,0.98
2022-12-13T09:00:08.354Z,1.20
2022-12-13T09:02:38.118Z,1.58
2022-12-13T09:05:07.989Z,1.43
2022-12-13T09:07:36.343Z,1.21
2022-12-13T09:10:25.983Z,0.64
2022-12-13T09:13:01.717Z,-0.30
2022-12-13T09:15:34.097Z,0.19
2022-12-13T09:18:04.971Z,0.31
2022-12-13T09:20:40.914Z,-0.65
2022-12-13T09:23:14.221Z,-1.15
2022-12-13T09:25:56.041Z,-1.07
2022-12-13T09:28:33.090Z,-1.05
2022-12-13T09:31:00.631Z,-0.72
2022-12-13T09:33:29.869Z,-0.95
2022-12-13T09:36:01.260Z,-0.89
2022-12-13T09:38:29.293Z,-0.50
2022-12-13T09:40:59.522Z,-0.22
2022-12-13T09:43:33.847Z,-0.29
2022-12-13T09:46:34.235Z,0.39
2022-12-13T09:49:39.211Z,0.79
2022-12-13T09:52:11.628Z,1.74
2022-12-13T09:54:48.255Z,0.26
2022-12-13T09:57:32.095Z,1.41
2022-12-13T10:00:04.595Z,1.41
2022-12-13T10:02:44.472Z,1.87
2022-12-13T10:05:35.852Z,2.10
2022-12-13T10:08:07.444Z,2.11
2022-12-13T10:10:35.243Z,2.09
2022-12-13T10:13:14.392Z,1.52
2022-12-13T10:15:43.504Z,0.61
2022-12-13T10:18:13.342Z,0.92
2022-12-13T10:20:42.114Z,1.38
2022-12-13T10:26:03.056Z,2.42
2022-12-13T10:28:32.590Z,0.66
2022-12-13T10:31:00.809Z,1.77
2022-12-13T10:33:33.068Z,1.46
2022-12-13T10:36:16.228Z,0.80
2022-12-13T10:38:45.950Z,0.79
2022-12-13T10:41:30.622Z,0.32
2022-12-13T10:44:22.513Z,2.07
2022-12-13T10:47:11.802Z,1.72
2022-12-13T10:49:49.907Z,2.24
2022-12-13T10:52:30.826Z,1.44
2022-12-13T10:55:04.611Z,2.06
2022-12-13T10:57:57.438Z,2.59
2022-12-13T11:00:38.058Z,1.55
2022-12-13T11:03:06.916Z,1.88
2022-12-13T11:05:35.825Z,1.82
2022-12-13T11:08:32.862Z,1.76
2022-12-13T11:11:02.495Z,2.15
2022-12-13T11:13:44.150Z,2.53
2022-12-13T11:16:31.839Z,2.75
2022-12-13T11:19:20.321Z,1.99
2022-12-13T11:21:49.440Z,2.21
2022-12-13T11:24:33.364Z,1.55
2022-12-13T11:27:19.869Z,1.27
2022-12-13T11:30:37.824Z,1.10
2022-12-13T11:33:29.963Z,2.69
2022-12-13T11:36:08.628Z,1.71
2022-12-13T11:38:58.040Z,1.99
2022-12-13T11:41:32.424Z,1.67
2022-12-13T11:44:19.833Z,2.12
2022-12-13T11:46:51.914Z,3.23
2022-12-13T11:49:33.445Z,2.26
2022-12-13T11:52:06.010Z,3.06
2022-12-13T11:54:50.659Z,2.36
2022-12-13T11:57:49.539Z,1.95
2022-12-13T12:00:36.665Z,2.25
2022-12-13T12:03:19.666Z,2.48
2022-12-13T12:05:55.769Z,2.05
2022-12-13T12:08:35.286Z,2.16
2022-12-13T12:11:17.897Z,3.07
2022-12-13T12:14:11.816Z,3.50
2022-12-13T12:16:43.602Z,2.71
2022-12-13T12:19:14.151Z,3.17
2022-12-13T12:22:16.314Z,3.69
2022-12-13T12:25:02.595Z,3.98
2022-12-13T12:27:39.067Z,3.15
2022-12-13T12:30:31.824Z,3.64
2022-12-13T12:33:10.180Z,3.78
2022-12-13T12:35:59.716Z,3.49
2022-12-13T12:38:52.960Z,3.39
2022-12-13T12:41:45.676Z,3.69
2022-12-13T12:44:22.114Z,3.76
2022-12-13T12:50:28.615Z,3.96
2022-12-13T12:53:16.504Z,3.29
2022-12-13T12:55:56.097Z,3.92
2022-12-13T12:58:50.659Z,3.20
2022-12-13T13:01:53.835Z,3.91
2022-12-13T13:04:29.813Z,2.49
2022-12-13T13:07:01.768Z,3.69
2022-12-13T13:09:30.239Z,4.33
2022-12-13T13:11:57.873Z,3.41
2022-12-13T13:14:37.088Z,2.50
2022-12-13T13:17:17.081Z,3.20
2022-12-13T13:20:12.124Z,2.37
2022-12-13T13:22:44.121Z,2.65
2022-12-13T13:25:31.165Z,2.75
2022-12-13T13:28:05.385Z,2.70
2022-12-13T13:30:33.419Z,2.66
2022-12-13T13:33:01.117Z,3.80
2022-12-13T13:35:33.167Z,3.40
2022-12-13T13:38:27.935Z,4.05
2022-12-13T13:40:55.296Z,4.34
2022-12-13T13:43:32.512Z,4.52
2022-12-13T13:46:11.559Z,3.39
2022-12-13T13:49:03.888Z,2.85
2022-12-13T13:52:23.932Z,2.89
2022-12-13T13:54:56.106Z,2.75
2022-12-13T14:00:56.230Z,4.28
2022-12-13T14:04:08.080Z,4.61
2022-12-13T14:07:22.069Z,4.70
2022-12-13T14:09:58.955Z,4.93
2022-12-13T14:12:56.305Z,4.52
2022-12-13T14:15:57.893Z,4.43
2022-12-13T14:18:31.409Z,4.42
2022-12-13T14:21:08.403Z,4.10
2022-12-13T14:24:01.340Z,3.75
2022-12-13T14:26:38.237Z,3.36
2022-12-13T14:29:19.172Z,3.21
2022-12-13T14:31:48.251Z,2.97
2022-12-13T14:34:30.048Z,3.35
2022-12-13T14:37:03.191Z,3.77
2022-12-13T14:39:31.491Z,3.81
2022-12-13T14:42:00.169Z,3.26
2022-12-13T14:44:29.985Z,3.57
2022-12-13T14:47:02.675Z,3.37
2022-12-13T14:49:39.551Z,3.29
2022-12-13T14:52:08.768Z,2.53
2022-12-13T14:54:48.889Z,1.51
2022-12-13T14:57:19.124Z,1.13
2022-12-13T14:59:50.386Z,1.02
2022-12-13T15:02:30.942Z,0.78
2022-12-13T15:05:01.944Z,0.83
2022-12-13T15:07:33.754Z,0.69
2022-12-13T15:10:28.349Z,0.65
2022-12-13T15:12:55.949Z,0.42
2022-12-13T15:15:32.670Z,0.15
2022-12-13T15:18:23.003Z,-0.04
2022-12-13T15:20:53.965Z,-0.10
2022-12-13T15:23:30.713Z,-0.01
2022-12-13T15:26:13.183Z,-0.04
2022-12-13T15:28:59.042Z,-0.04
2022-12-13T15:31:26.886Z,-0.16
2022-12-13T15:34:01.093Z,-0.05
2022-12-13T15:36:29.233Z,0.23
2022-12-13T15:38:56.878Z,0.75
2022-12-13T15:41:36.844Z,1.14
2022-12-13T15:44:08.061Z,1.55
2022-12-13T15:46:38.151Z,1.56
2022-12-13T15:49:07.988Z,1.57
2022-12-13T15:51:53.848Z,1.45
2022-12-13T15:54:23.915Z,1.58
2022-12-13T15:57:17.558Z,1.61
2022-12-13T15:59:45.955Z,1.76
2022-12-13T16:02:20.537Z,1.88
2022-12-13T16:04:49.059Z,1.84
2022-12-13T16:07:29.975Z,1.94
2022-12-13T16:09:57.856Z,1.75
2022-12-13T16:12:38.606Z,2.54
2022-12-13T16:15:28.953Z,2.35
2022-12-13T16:18:16.550Z,2.03
2022-12-13T16:20:46.408Z,1.90
2022-12-13T16:23:26.603Z,2.23
2022-12-13T16:25:56.512Z,2.06
2022-12-13T16:28:26.190Z,1.98
2022-12-13T16:30:53.849Z,1.86
2022-12-13T16:33:27.534Z,1.98
2022-12-13T16:35:56.014Z,1.95
2022-12-13T16:38:26.648Z,1.92
2022-12-13T16:40:56.300Z,1.51
2022-12-13T16:43:33.365Z,1.68
2022-12-13T16:47:14.342Z,1.22
2022-12-13T16:48:51.999Z,0.79
2022-12-13T16:51:20.588Z,0.37
2022-12-13T16:53:48.496Z,-0.43
2022-12-13T16:56:21.883Z,-0.60
2022-12-13T16:58:50.665Z,-0.17
2022-12-13T17:01:20.436Z,0.40
2022-12-13T17:03:49.123Z,0.58
2022-12-13T17:06:22.959Z,0.59
2022-12-13T17:08:51.735Z,-0.68
2022-12-13T17:11:19.417Z,-0.67
2022-12-13T17:13:48.223Z,-0.20
2022-12-13T17:16:16.836Z,-0.33
2022-12-13T17:18:45.168Z,-0.33
2022-12-13T17:21:13.989Z,-0.68
2022-12-13T17:23:42.189Z,0.05
2022-12-13T17:26:12.002Z,0.59
2022-12-13T17:28:40.230Z,0.90
2022-12-13T17:31:13.962Z,0.88
2022-12-13T17:33:43.824Z,0.14
2022-12-13T17:36:14.810Z,-0.28
2022-12-13T17:38:47.365Z,-0.42
2022-12-13T17:41:16.119Z,-0.72
2022-12-13T17:43:45.529Z,-1.14
2022-12-13T17:46:18.153Z,-1.23
2022-12-13T17:48:46.745Z,-1.21
2022-12-13T17:51:14.658Z,-1.19
2022-12-13T17:53:43.619Z,-1.76
2022-12-13T17:56:15.078Z,-2.03
2022-12-13T17:58:43.198Z,-2.18
2022-12-13T18:01:20.592Z,-2.25
2022-12-13T18:03:51.082Z,-2.45
2022-12-13T18:06:18.922Z,-2.61
2022-12-13T18:08:47.168Z,-2.71
2022-12-13T18:11:33.037Z,-2.68
2022-12-13T18:14:03.459Z,-2.42
2022-12-13T18:16:37.328Z,-2.36
2022-12-13T18:19:12.262Z,-2.42
2022-12-13T18:21:41.467Z,-2.14
2022-12-13T18:24:10.455Z,-2.31
2022-12-13T18:26:39.144Z,-2.58
2022-12-13T18:29:07.959Z,-2.38
2022-12-13T18:31:36.295Z,-2.49
2022-12-13T18:34:05.978Z,-2.14
2022-12-13T18:36:35.871Z,-2.42
2022-12-13T18:39:04.972Z,-2.63
2022-12-13T18:41:36.899Z,-3.00
2022-12-13T18:44:08.375Z,-3.15
2022-12-13T18:46:40.438Z,-2.99
2022-12-13T18:49:11.871Z,-2.85
2022-12-13T18:51:40.425Z,-2.57
2022-12-13T18:54:27.698Z,-2.57
2022-12-13T18:56:58.017Z,-2.61
2022-12-13T18:59:26.639Z,-2.97
2022-12-13T19:01:55.708Z,-2.87
2022-12-13T19:04:27.865Z,-2.86
2022-12-13T19:06:57.640Z,-2.71
2022-12-13T19:09:29.935Z,-2.98
2022-12-13T19:11:58.800Z,-2.86
2022-12-13T19:14:28.834Z,-2.98
2022-12-13T19:16:57.893Z,-3.16
2022-12-13T19:19:27.467Z,-3.27
2022-12-13T19:21:56.700Z,-3.10
2022-12-13T19:24:25.686Z,-3.03
2022-12-13T19:26:55.007Z,-3.03
2022-12-13T19:29:26.111Z,-3.18
2022-12-13T19:31:54.903Z,-3.47
2022-12-13T19:34:24.347Z,-3.56
2022-12-13T19:36:54.513Z,-3.35
2022-12-13T19:39:25.720Z,-2.44
2022-12-13T19:41:55.451Z,-2.10
2022-12-13T19:44:24.327Z,-2.57
2022-12-13T19:46:54.227Z,-2.92
2022-12-13T19:49:25.040Z,-3.34
2022-12-13T19:51:53.667Z,-3.43
2022-12-13T19:54:25.286Z,-3.60
2022-12-13T19:57:07.008Z,-3.67
2022-12-13T19:59:36.698Z,-3.12
2022-12-13T20:02:08.188Z,-3.16
2022-12-13T20:04:39.171Z,-3.19
2022-12-13T20:07:07.868Z,-3.83
2022-12-13T20:09:41.659Z,-3.63
2022-12-13T20:12:10.351Z,-3.69
2022-12-13T20:14:39.281Z,-3.91
2022-12-13T20:17:08.777Z,-3.60
2022-12-13T20:19:37.598Z,-4.15
2022-12-13T20:22:07.140Z,-3.98
2022-12-13T20:24:35.595Z,-4.06
2022-12-13T20:27:07.315Z,-4.11
2022-12-13T20:29:37.390Z,-3.98
2022-12-13T20:32:06.397Z,-3.90
2022-12-13T20:34:35.127Z,-3.74
2022-12-13T20:37:04.983Z,-3.65
2022-12-13T20:39:35.235Z,-3.82
2022-12-13T20:42:04.576Z,-2.18
2022-12-13T20:44:34.911Z,-1.91
2022-12-13T20:47:07.355Z,-1.70
2022-12-13T20:49:36.281Z,-2.74
2022-12-13T20:52:07.710Z,-3.31
2022-12-13T20:54:36.791Z,-4.15
2022-12-13T20:57:05.793Z,-4.28
2022-12-13T20:59:34.596Z,-4.38
2022-12-13T21:02:02.582Z,-4.40
2022-12-13T21:04:33.785Z,-4.45
2022-12-13T21:07:02.836Z,-4.52
2022-12-13T21:09:30.997Z,-4.71
2022-12-13T21:11:59.787Z,-4.70
2022-12-13T21:14:34.317Z,-4.30
2022-12-13T21:17:04.869Z,-3.84
2022-12-13T21:19:39.115Z,-3.83
2022-12-13T21:22:07.979Z,-4.15
2022-12-13T21:24:36.221Z,-3.81
2022-12-13T21:27:04.602Z,-3.81
2022-12-13T21:29:32.544Z,-3.98
2022-12-13T21:32:00.384Z,-4.58
2022-12-13T21:34:27.989Z,-3.99
2022-12-13T21:36:55.932Z,-3.74
2022-12-13T21:39:28.504Z,-2.94
2022-12-13T21:41:57.103Z,-2.29
2022-12-13T21:44:24.585Z,-2.42
2022-12-13T21:49:39.686Z,-1.91
2022-12-13T21:52:07.065Z,-1.74
2022-12-13T21:54:34.427Z,-1.84
2022-12-13T21:57:20.635Z,-2.08
2022-12-13T21:59:47.998Z,-1.84
2022-12-13T22:02:19.960Z,-1.74
2022-12-13T22:04:56.018Z,-2.53
2022-12-13T22:07:24.397Z,-2.99
2022-12-13T22:09:53.333Z,-2.70
2022-12-13T22:12:31.003Z,-2.12
2022-12-13T22:14:58.754Z,-1.56
2022-12-13T22:17:33.043Z,-1.74
2022-12-13T22:20:05.165Z,-1.96
2022-12-13T22:22:32.639Z,-2.11
2022-12-13T22:25:00.118Z,-3.00
2022-12-13T22:27:27.897Z,-2.88
2022-12-13T22:29:57.230Z,-3.21
2022-12-13T22:32:27.092Z,-2.90
2022-12-13T22:34:55.241Z,-2.58
2022-12-13T22:37:22.786Z,-2.29
2022-12-13T22:39:50.162Z,-2.49
2022-12-13T22:42:19.785Z,-2.62
2022-12-13T22:44:47.658Z,-2.11
2022-12-13T22:47:15.082Z,-1.81
2022-12-13T22:49:42.734Z,-1.97
2022-12-13T22:52:10.184Z,-2.37
2022-12-13T22:54:37.611Z,-2.87
2022-12-13T22:57:07.428Z,-3.24
2022-12-13T22:59:34.835Z,-3.39
2022-12-13T23:02:03.792Z,-3.83
2022-12-13T23:04:33.098Z,-3.19
2022-12-13T23:07:00.756Z,-3.26
2022-12-13T23:09:28.126Z,-2.83
2022-12-13T23:12:14.459Z,-2.47
2022-12-13T23:14:41.864Z,-2.50
2022-12-13T23:17:09.609Z,-2.57
2022-12-13T23:19:49.559Z,-2.17
2022-12-13T23:22:23.406Z,-2.14
2022-12-13T23:24:51.762Z,-1.98
2022-12-13T23:27:21.355Z,-2.00
2022-12-13T23:29:49.209Z,-1.86
2022-12-13T23:32:16.682Z,-1.82
2022-12-13T23:34:44.317Z,-1.81
2022-12-13T23:37:11.714Z,-1.81
2022-12-13T23:39:39.108Z,-1.90
2022-12-13T23:42:07.301Z,-1.60
2022-12-13T23:44:34.786Z,-2.06
2022-12-13T23:47:02.135Z,-2.62
2022-12-13T23:49:29.806Z,-3.42
2022-12-13T23:51:57.197Z,-3.27
2022-12-13T23:54:24.542Z,-3.14
2022-12-13T23:56:52.220Z,-3.32
2022-12-13T23:59:19.556Z,-2.40
